Decoded Metar for GMMW (ARWI in MOROCCO) (IATA:N/A) | Meteo·Mobile Aviation Weather
aviador You're here:

GMMW Decoded Metar

ARWI in MOROCCO
Report Time2018-09-19 14:00:00
UTC Time2018-09-19 14:45:30
Flight Rules vfr VFR
Wind040° at 12 kt
W.Decomp.*RWY 08: 9.3 kt HW 7.6 kt LCW
W.Rank040° ranks 1
Current wind is above 040° avg. (8.5)
Visibility9999 m
Phenomena:N/A
Clouds:Few 023 Hf
Expected CloudBase > 3,200 ft AGL from Temp-Dew spread
CeilingNone
Temp28°C (ISA +14)
Dew Point20°C (62% RH)
Heat Index29.7°C
AAT27.4°C
QNH1018 hPa
Density Alt2,343 ft
Elevation574 ft
Report Wrong Elevation
Raw Report
GMMW 191400Z 04012KT 020V080 9999 FEW023 28/20 Q1018 NOSIG=

Extra information for GMMW:More info

Metar Taf Metar & Taf Last 4 Metars F.Rules Stats Wind Profile Meteogram Temp Stats Airport Information Weather charts Add Link Nearby VenuesMetar ALERT Operation Metar Decoded Social comments